sensor_id;sensor_type;location;lat;lon;timestamp;P1;durP1;ratioP1;P2;durP2;ratioP2
19836;SDS011;10079;55.740;37.662;2022-12-04T00:05:29;19.07;;;8.93;;
19836;SDS011;10079;55.740;37.662;2022-12-04T00:08:41;14.87;;;7.70;;
19836;SDS011;10079;55.740;37.662;2022-12-04T00:11:47;18.10;;;8.10;;
19836;SDS011;10079;55.740;37.662;2022-12-04T00:14:50;12.50;;;6.77;;
19836;SDS011;10079;55.740;37.662;2022-12-04T00:17:53;16.03;;;6.77;;
19836;SDS011;10079;55.740;37.662;2022-12-04T00:20:57;21.50;;;7.17;;
19836;SDS011;10079;55.740;37.662;2022-12-04T00:23:59;17.60;;;8.10;;
19836;SDS011;10079;55.740;37.662;2022-12-04T00:27:02;17.23;;;7.53;;
19836;SDS011;10079;55.740;37.662;2022-12-04T00:30:09;16.90;;;7.80;;
19836;SDS011;10079;55.740;37.662;2022-12-04T00:33:15;21.73;;;7.50;;
19836;SDS011;10079;55.740;37.662;2022-12-04T00:36:19;16.83;;;8.10;;
19836;SDS011;10079;55.740;37.662;2022-12-04T00:39:22;16.87;;;7.27;;
19836;SDS011;10079;55.740;37.662;2022-12-04T00:42:24;18.43;;;8.23;;
19836;SDS011;10079;55.740;37.662;2022-12-04T00:45:28;19.10;;;8.43;;
19836;SDS011;10079;55.740;37.662;2022-12-04T00:48:34;15.27;;;7.13;;
19836;SDS011;10079;55.740;37.662;2022-12-04T00:51:40;16.80;;;8.17;;
19836;SDS011;10079;55.740;37.662;2022-12-04T00:54:43;14.37;;;6.47;;
19836;SDS011;10079;55.740;37.662;2022-12-04T00:57:47;17.37;;;8.07;;
19836;SDS011;10079;55.740;37.662;2022-12-04T01:00:50;15.83;;;7.37;;
19836;SDS011;10079;55.740;37.662;2022-12-04T01:03:56;14.83;;;6.83;;
19836;SDS011;10079;55.740;37.662;2022-12-04T01:06:59;17.57;;;8.40;;
19836;SDS011;10079;55.740;37.662;2022-12-04T01:10:02;15.47;;;7.33;;
19836;SDS011;10079;55.740;37.662;2022-12-04T01:13:05;15.47;;;7.57;;
19836;SDS011;10079;55.740;37.662;2022-12-04T01:16:13;18.17;;;6.73;;
19836;SDS011;10079;55.740;37.662;2022-12-04T01:19:16;22.27;;;7.70;;
19836;SDS011;10079;55.740;37.662;2022-12-04T01:22:19;16.47;;;7.20;;
19836;SDS011;10079;55.740;37.662;2022-12-04T01:25:23;18.20;;;7.63;;
19836;SDS011;10079;55.740;37.662;2022-12-04T01:28:28;15.10;;;6.73;;
19836;SDS011;10079;55.740;37.662;2022-12-04T01:31:34;17.37;;;7.63;;
19836;SDS011;10079;55.740;37.662;2022-12-04T01:59:02;20.03;;;7.93;;
19836;SDS011;10079;55.740;37.662;2022-12-04T02:02:15;13.63;;;7.83;;
19836;SDS011;10079;55.740;37.662;2022-12-04T02:05:28;14.97;;;8.10;;
19836;SDS011;10079;55.740;37.662;2022-12-04T02:19:20;16.80;;;8.47;;
19836;SDS011;10079;55.740;37.662;2022-12-04T02:22:26;15.93;;;7.73;;
19836;SDS011;10079;55.740;37.662;2022-12-04T02:25:52;15.57;;;7.00;;
19836;SDS011;10079;55.740;37.662;2022-12-04T02:29:13;15.33;;;7.43;;
19836;SDS011;10079;55.740;37.662;2022-12-04T02:32:30;16.17;;;6.90;;
19836;SDS011;10079;55.740;37.662;2022-12-04T02:35:35;15.93;;;7.60;;
19836;SDS011;10079;55.740;37.662;2022-12-04T02:38:37;14.33;;;6.13;;
19836;SDS011;10079;55.740;37.662;2022-12-04T02:41:53;14.30;;;6.73;;
19836;SDS011;10079;55.740;37.662;2022-12-04T02:44:56;14.40;;;6.67;;
19836;SDS011;10079;55.740;37.662;2022-12-04T02:48:10;18.57;;;7.13;;
19836;SDS011;10079;55.740;37.662;2022-12-04T02:51:17;15.33;;;6.80;;
19836;SDS011;10079;55.740;37.662;2022-12-04T02:54:24;21.80;;;7.83;;
19836;SDS011;10079;55.740;37.662;2022-12-04T02:57:30;15.20;;;7.27;;
19836;SDS011;10079;55.740;37.662;2022-12-04T03:00:32;13.97;;;6.50;;
19836;SDS011;10079;55.740;37.662;2022-12-04T03:03:35;18.43;;;6.60;;
19836;SDS011;10079;55.740;37.662;2022-12-04T03:06:39;18.07;;;7.27;;
19836;SDS011;10079;55.740;37.662;2022-12-04T03:09:42;18.07;;;7.10;;
19836;SDS011;10079;55.740;37.662;2022-12-04T03:13:02;16.07;;;6.33;;
19836;SDS011;10079;55.740;37.662;2022-12-04T03:16:09;16.30;;;7.20;;
19836;SDS011;10079;55.740;37.662;2022-12-04T03:19:14;16.83;;;7.30;;
19836;SDS011;10079;55.740;37.662;2022-12-04T03:22:21;16.90;;;6.73;;
19836;SDS011;10079;55.740;37.662;2022-12-04T03:25:25;15.23;;;6.77;;
19836;SDS011;10079;55.740;37.662;2022-12-04T03:28:30;14.87;;;6.07;;
19836;SDS011;10079;55.740;37.662;2022-12-04T03:31:42;17.00;;;6.57;;
19836;SDS011;10079;55.740;37.662;2022-12-04T03:38:10;17.60;;;6.93;;
19836;SDS011;10079;55.740;37.662;2022-12-04T03:41:40;19.23;;;8.13;;
19836;SDS011;10079;55.740;37.662;2022-12-04T03:44:52;21.70;;;8.70;;
19836;SDS011;10079;55.740;37.662;2022-12-04T03:47:58;17.07;;;6.97;;
19836;SDS011;10079;55.740;37.662;2022-12-04T03:51:14;15.17;;;7.20;;
19836;SDS011;10079;55.740;37.662;2022-12-04T03:54:20;17.50;;;7.40;;
19836;SDS011;10079;55.740;37.662;2022-12-04T03:57:23;14.20;;;7.53;;
19836;SDS011;10079;55.740;37.662;2022-12-04T04:00:25;16.03;;;7.23;;
19836;SDS011;10079;55.740;37.662;2022-12-04T04:03:43;19.03;;;7.80;;
19836;SDS011;10079;55.740;37.662;2022-12-04T04:06:45;17.77;;;6.27;;
19836;SDS011;10079;55.740;37.662;2022-12-04T04:10:02;11.87;;;7.00;;
19836;SDS011;10079;55.740;37.662;2022-12-04T04:23:53;17.63;;;8.23;;
19836;SDS011;10079;55.740;37.662;2022-12-04T04:26:55;17.30;;;7.47;;
19836;SDS011;10079;55.740;37.662;2022-12-04T04:29:58;18.80;;;8.03;;
19836;SDS011;10079;55.740;37.662;2022-12-04T04:33:13;16.63;;;7.40;;
19836;SDS011;10079;55.740;37.662;2022-12-04T04:36:20;16.20;;;7.60;;
19836;SDS011;10079;55.740;37.662;2022-12-04T04:39:38;15.97;;;7.23;;
19836;SDS011;10079;55.740;37.662;2022-12-04T04:43:02;16.33;;;6.93;;
19836;SDS011;10079;55.740;37.662;2022-12-04T04:46:17;20.57;;;8.27;;
19836;SDS011;10079;55.740;37.662;2022-12-04T04:49:29;16.70;;;7.50;;
19836;SDS011;10079;55.740;37.662;2022-12-04T04:52:32;14.37;;;7.90;;
19836;SDS011;10079;55.740;37.662;2022-12-04T04:55:38;15.57;;;7.80;;
19836;SDS011;10079;55.740;37.662;2022-12-04T04:58:44;17.90;;;7.43;;
19836;SDS011;10079;55.740;37.662;2022-12-04T05:01:51;18.67;;;7.50;;
19836;SDS011;10079;55.740;37.662;2022-12-04T05:15:28;19.33;;;8.83;;
19836;SDS011;10079;55.740;37.662;2022-12-04T05:18:32;17.10;;;7.20;;
19836;SDS011;10079;55.740;37.662;2022-12-04T05:21:34;18.67;;;7.47;;
19836;SDS011;10079;55.740;37.662;2022-12-04T05:24:41;18.43;;;6.90;;
19836;SDS011;10079;55.740;37.662;2022-12-04T05:27:47;17.03;;;7.07;;
19836;SDS011;10079;55.740;37.662;2022-12-04T05:30:54;15.00;;;7.13;;
19836;SDS011;10079;55.740;37.662;2022-12-04T05:34:00;14.67;;;6.93;;
19836;SDS011;10079;55.740;37.662;2022-12-04T05:42:38;19.83;;;7.97;;
19836;SDS011;10079;55.740;37.662;2022-12-04T05:45:44;12.87;;;6.47;;
19836;SDS011;10079;55.740;37.662;2022-12-04T05:53:40;19.07;;;8.60;;
19836;SDS011;10079;55.740;37.662;2022-12-04T05:56:43;17.63;;;7.80;;
19836;SDS011;10079;55.740;37.662;2022-12-04T05:59:49;18.70;;;7.07;;
19836;SDS011;10079;55.740;37.662;2022-12-04T06:02:51;17.50;;;8.07;;
19836;SDS011;10079;55.740;37.662;2022-12-04T06:05:54;17.13;;;6.57;;
19836;SDS011;10079;55.740;37.662;2022-12-04T06:08:57;20.07;;;6.70;;
19836;SDS011;10079;55.740;37.662;2022-12-04T06:12:00;15.20;;;7.17;;
19836;SDS011;10079;55.740;37.662;2022-12-04T06:15:04;20.17;;;7.13;;
19836;SDS011;10079;55.740;37.662;2022-12-04T06:18:06;16.80;;;7.10;;
19836;SDS011;10079;55.740;37.662;2022-12-04T06:21:09;17.97;;;7.33;;
19836;SDS011;10079;55.740;37.662;2022-12-04T06:24:14;17.10;;;7.23;;
19836;SDS011;10079;55.740;37.662;2022-12-04T06:27:16;17.00;;;7.10;;
19836;SDS011;10079;55.740;37.662;2022-12-04T06:30:22;19.83;;;7.40;;
19836;SDS011;10079;55.740;37.662;2022-12-04T06:44:15;20.80;;;9.03;;
19836;SDS011;10079;55.740;37.662;2022-12-04T06:47:18;17.23;;;7.53;;
19836;SDS011;10079;55.740;37.662;2022-12-04T06:50:21;14.90;;;7.67;;
19836;SDS011;10079;55.740;37.662;2022-12-04T07:04:13;17.77;;;9.00;;
19836;SDS011;10079;55.740;37.662;2022-12-04T07:07:16;20.70;;;8.10;;
19836;SDS011;10079;55.740;37.662;2022-12-04T07:10:19;14.23;;;6.83;;
19836;SDS011;10079;55.740;37.662;2022-12-04T07:13:34;20.53;;;7.53;;
19836;SDS011;10079;55.740;37.662;2022-12-04T07:16:49;15.40;;;7.13;;
19836;SDS011;10079;55.740;37.662;2022-12-04T07:19:52;17.13;;;7.80;;
19836;SDS011;10079;55.740;37.662;2022-12-04T07:22:58;16.00;;;6.87;;
19836;SDS011;10079;55.740;37.662;2022-12-04T07:36:45;18.67;;;8.80;;
19836;SDS011;10079;55.740;37.662;2022-12-04T07:50:24;16.60;;;8.73;;
19836;SDS011;10079;55.740;37.662;2022-12-04T07:53:27;18.87;;;8.40;;
19836;SDS011;10079;55.740;37.662;2022-12-04T07:56:42;17.83;;;7.87;;
19836;SDS011;10079;55.740;37.662;2022-12-04T07:59:45;16.93;;;7.70;;
19836;SDS011;10079;55.740;37.662;2022-12-04T08:02:48;17.50;;;7.27;;
19836;SDS011;10079;55.740;37.662;2022-12-04T08:05:51;16.00;;;8.23;;
19836;SDS011;10079;55.740;37.662;2022-12-04T08:08:54;15.30;;;7.53;;
19836;SDS011;10079;55.740;37.662;2022-12-04T08:12:10;16.37;;;6.87;;
19836;SDS011;10079;55.740;37.662;2022-12-04T08:15:25;15.57;;;7.53;;
19836;SDS011;10079;55.740;37.662;2022-12-04T08:18:40;16.00;;;8.60;;
19836;SDS011;10079;55.740;37.662;2022-12-04T08:21:55;16.90;;;7.87;;
19836;SDS011;10079;55.740;37.662;2022-12-04T08:25:10;20.50;;;8.47;;
19836;SDS011;10079;55.740;37.662;2022-12-04T08:28:16;16.63;;;8.17;;
19836;SDS011;10079;55.740;37.662;2022-12-04T08:31:20;14.33;;;7.17;;
19836;SDS011;10079;55.740;37.662;2022-12-04T08:34:22;13.60;;;7.37;;
19836;SDS011;10079;55.740;37.662;2022-12-04T08:37:24;19.30;;;7.80;;
19836;SDS011;10079;55.740;37.662;2022-12-04T08:40:31;17.90;;;7.50;;
19836;SDS011;10079;55.740;37.662;2022-12-04T08:43:34;14.70;;;7.87;;
19836;SDS011;10079;55.740;37.662;2022-12-04T08:46:45;11.77;;;7.27;;
19836;SDS011;10079;55.740;37.662;2022-12-04T08:49:49;14.40;;;7.73;;
19836;SDS011;10079;55.740;37.662;2022-12-04T08:52:52;12.73;;;7.17;;
19836;SDS011;10079;55.740;37.662;2022-12-04T08:55:54;12.67;;;7.43;;
19836;SDS011;10079;55.740;37.662;2022-12-04T08:59:05;16.13;;;7.47;;
19836;SDS011;10079;55.740;37.662;2022-12-04T09:02:12;14.03;;;7.50;;
19836;SDS011;10079;55.740;37.662;2022-12-04T09:05:23;16.20;;;7.50;;
19836;SDS011;10079;55.740;37.662;2022-12-04T09:08:38;12.73;;;6.90;;
19836;SDS011;10079;55.740;37.662;2022-12-04T09:11:53;18.13;;;7.73;;
19836;SDS011;10079;55.740;37.662;2022-12-04T09:15:09;13.80;;;7.33;;
19836;SDS011;10079;55.740;37.662;2022-12-04T09:18:15;14.70;;;7.30;;
19836;SDS011;10079;55.740;37.662;2022-12-04T09:21:22;16.77;;;7.87;;
19836;SDS011;10079;55.740;37.662;2022-12-04T09:24:25;15.03;;;7.47;;
19836;SDS011;10079;55.740;37.662;2022-12-04T09:27:37;15.03;;;7.63;;
19836;SDS011;10079;55.740;37.662;2022-12-04T09:30:39;16.63;;;7.30;;
19836;SDS011;10079;55.740;37.662;2022-12-04T09:34:00;17.30;;;7.80;;
19836;SDS011;10079;55.740;37.662;2022-12-04T09:37:04;20.73;;;7.97;;
19836;SDS011;10079;55.740;37.662;2022-12-04T09:40:07;26.13;;;7.77;;
19836;SDS011;10079;55.740;37.662;2022-12-04T09:53:59;15.43;;;8.60;;
19836;SDS011;10079;55.740;37.662;2022-12-04T09:57:11;17.60;;;8.20;;
19836;SDS011;10079;55.740;37.662;2022-12-04T10:14:13;13.10;;;6.77;;
19836;SDS011;10079;55.740;37.662;2022-12-04T10:17:44;19.07;;;7.37;;
19836;SDS011;10079;55.740;37.662;2022-12-04T10:20:56;13.57;;;7.20;;
19836;SDS011;10079;55.740;37.662;2022-12-04T10:27:25;14.10;;;7.03;;
19836;SDS011;10079;55.740;37.662;2022-12-04T10:30:28;14.10;;;6.17;;
19836;SDS011;10079;55.740;37.662;2022-12-04T10:33:34;12.27;;;6.13;;
19836;SDS011;10079;55.740;37.662;2022-12-04T10:36:39;14.93;;;6.97;;
19836;SDS011;10079;55.740;37.662;2022-12-04T10:39:49;14.30;;;6.53;;
19836;SDS011;10079;55.740;37.662;2022-12-04T10:42:56;13.60;;;6.43;;
19836;SDS011;10079;55.740;37.662;2022-12-04T10:46:08;13.93;;;6.33;;
19836;SDS011;10079;55.740;37.662;2022-12-04T10:49:13;13.67;;;6.53;;
19836;SDS011;10079;55.740;37.662;2022-12-04T10:52:27;11.03;;;6.77;;
19836;SDS011;10079;55.740;37.662;2022-12-04T10:55:33;11.97;;;6.80;;
19836;SDS011;10079;55.740;37.662;2022-12-04T10:58:40;13.37;;;6.90;;
19836;SDS011;10079;55.740;37.662;2022-12-04T11:01:50;13.13;;;5.77;;
19836;SDS011;10079;55.740;37.662;2022-12-04T11:04:55;22.53;;;7.60;;
19836;SDS011;10079;55.740;37.662;2022-12-04T11:07:57;12.63;;;5.77;;
19836;SDS011;10079;55.740;37.662;2022-12-04T11:11:02;15.10;;;6.40;;
19836;SDS011;10079;55.740;37.662;2022-12-04T11:14:20;12.83;;;6.07;;
19836;SDS011;10079;55.740;37.662;2022-12-04T11:17:21;11.57;;;6.47;;
19836;SDS011;10079;55.740;37.662;2022-12-04T11:20:25;13.47;;;6.43;;
19836;SDS011;10079;55.740;37.662;2022-12-04T11:23:29;13.67;;;6.27;;
19836;SDS011;10079;55.740;37.662;2022-12-04T11:26:36;11.33;;;6.27;;
19836;SDS011;10079;55.740;37.662;2022-12-04T11:29:40;10.00;;;5.50;;
19836;SDS011;10079;55.740;37.662;2022-12-04T11:54:01;12.90;;;6.87;;
19836;SDS011;10079;55.740;37.662;2022-12-04T11:57:09;16.70;;;6.90;;
19836;SDS011;10079;55.740;37.662;2022-12-04T12:00:16;13.20;;;5.70;;
19836;SDS011;10079;55.740;37.662;2022-12-04T12:03:22;14.73;;;6.70;;
19836;SDS011;10079;55.740;37.662;2022-12-04T12:06:38;11.70;;;6.00;;
19836;SDS011;10079;55.740;37.662;2022-12-04T12:10:16;12.83;;;5.83;;
19836;SDS011;10079;55.740;37.662;2022-12-04T12:13:34;11.47;;;5.77;;
19836;SDS011;10079;55.740;37.662;2022-12-04T12:16:45;14.83;;;5.23;;
19836;SDS011;10079;55.740;37.662;2022-12-04T12:19:53;15.33;;;5.50;;
19836;SDS011;10079;55.740;37.662;2022-12-04T12:23:10;13.33;;;5.40;;
19836;SDS011;10079;55.740;37.662;2022-12-04T12:33:17;14.07;;;5.27;;
19836;SDS011;10079;55.740;37.662;2022-12-04T12:36:24;11.37;;;5.33;;
19836;SDS011;10079;55.740;37.662;2022-12-04T12:39:30;10.60;;;5.63;;
19836;SDS011;10079;55.740;37.662;2022-12-04T12:42:35;13.40;;;5.60;;
19836;SDS011;10079;55.740;37.662;2022-12-04T12:45:43;10.07;;;5.43;;
19836;SDS011;10079;55.740;37.662;2022-12-04T12:48:52;11.67;;;5.43;;
19836;SDS011;10079;55.740;37.662;2022-12-04T12:52:01;9.17;;;4.83;;
19836;SDS011;10079;55.740;37.662;2022-12-04T12:55:20;9.47;;;4.87;;
19836;SDS011;10079;55.740;37.662;2022-12-04T12:58:27;14.67;;;5.33;;
19836;SDS011;10079;55.740;37.662;2022-12-04T13:01:53;12.40;;;5.33;;
19836;SDS011;10079;55.740;37.662;2022-12-04T13:05:08;10.30;;;5.67;;
19836;SDS011;10079;55.740;37.662;2022-12-04T13:08:25;9.63;;;4.40;;
19836;SDS011;10079;55.740;37.662;2022-12-04T13:11:32;10.57;;;4.97;;
19836;SDS011;10079;55.740;37.662;2022-12-04T13:14:35;9.30;;;4.57;;
19836;SDS011;10079;55.740;37.662;2022-12-04T13:17:39;9.60;;;4.77;;
19836;SDS011;10079;55.740;37.662;2022-12-04T13:20:44;9.47;;;4.67;;
19836;SDS011;10079;55.740;37.662;2022-12-04T13:23:50;13.93;;;4.77;;
19836;SDS011;10079;55.740;37.662;2022-12-04T13:30:47;9.67;;;4.43;;
19836;SDS011;10079;55.740;37.662;2022-12-04T13:33:56;10.83;;;4.87;;
19836;SDS011;10079;55.740;37.662;2022-12-04T13:37:24;11.90;;;4.80;;
19836;SDS011;10079;55.740;37.662;2022-12-04T13:40:30;10.60;;;4.60;;
19836;SDS011;10079;55.740;37.662;2022-12-04T13:43:36;10.47;;;4.63;;
19836;SDS011;10079;55.740;37.662;2022-12-04T13:46:41;8.93;;;4.63;;
19836;SDS011;10079;55.740;37.662;2022-12-04T13:49:46;9.30;;;4.30;;
19836;SDS011;10079;55.740;37.662;2022-12-04T13:53:04;13.10;;;5.23;;
19836;SDS011;10079;55.740;37.662;2022-12-04T13:56:29;12.93;;;5.47;;
19836;SDS011;10079;55.740;37.662;2022-12-04T13:59:38;9.60;;;4.13;;
19836;SDS011;10079;55.740;37.662;2022-12-04T14:02:43;13.17;;;5.97;;
19836;SDS011;10079;55.740;37.662;2022-12-04T14:05:47;9.00;;;4.13;;
19836;SDS011;10079;55.740;37.662;2022-12-04T14:09:02;9.27;;;4.77;;
19836;SDS011;10079;55.740;37.662;2022-12-04T14:12:04;9.40;;;4.30;;
19836;SDS011;10079;55.740;37.662;2022-12-04T14:15:21;9.40;;;4.70;;
19836;SDS011;10079;55.740;37.662;2022-12-04T14:18:28;10.50;;;5.03;;
19836;SDS011;10079;55.740;37.662;2022-12-04T14:21:42;11.17;;;5.73;;
19836;SDS011;10079;55.740;37.662;2022-12-04T14:24:44;11.40;;;5.40;;
19836;SDS011;10079;55.740;37.662;2022-12-04T14:27:49;11.20;;;5.20;;
19836;SDS011;10079;55.740;37.662;2022-12-04T14:30:58;8.43;;;3.77;;
19836;SDS011;10079;55.740;37.662;2022-12-04T14:34:26;9.43;;;4.77;;
19836;SDS011;10079;55.740;37.662;2022-12-04T14:37:31;8.77;;;4.80;;
19836;SDS011;10079;55.740;37.662;2022-12-04T14:40:40;6.60;;;4.37;;
19836;SDS011;10079;55.740;37.662;2022-12-04T14:43:43;8.97;;;4.67;;
19836;SDS011;10079;55.740;37.662;2022-12-04T14:46:46;12.30;;;4.33;;
19836;SDS011;10079;55.740;37.662;2022-12-04T14:50:10;7.83;;;4.07;;
19836;SDS011;10079;55.740;37.662;2022-12-04T14:53:45;6.70;;;4.17;;
19836;SDS011;10079;55.740;37.662;2022-12-04T15:00:47;10.00;;;4.63;;
19836;SDS011;10079;55.740;37.662;2022-12-04T15:03:48;8.60;;;4.37;;
19836;SDS011;10079;55.740;37.662;2022-12-04T15:06:50;10.40;;;4.93;;
19836;SDS011;10079;55.740;37.662;2022-12-04T15:09:55;7.50;;;4.07;;
19836;SDS011;10079;55.740;37.662;2022-12-04T15:12:58;10.00;;;4.53;;
19836;SDS011;10079;55.740;37.662;2022-12-04T15:16:08;8.20;;;3.70;;
19836;SDS011;10079;55.740;37.662;2022-12-04T15:19:15;9.73;;;3.80;;
19836;SDS011;10079;55.740;37.662;2022-12-04T15:22:22;6.63;;;3.27;;
19836;SDS011;10079;55.740;37.662;2022-12-04T15:25:27;11.67;;;3.90;;
19836;SDS011;10079;55.740;37.662;2022-12-04T15:28:32;8.87;;;4.53;;
19836;SDS011;10079;55.740;37.662;2022-12-04T15:31:59;8.13;;;4.03;;
19836;SDS011;10079;55.740;37.662;2022-12-04T15:35:02;11.17;;;4.70;;
19836;SDS011;10079;55.740;37.662;2022-12-04T15:38:04;9.37;;;4.40;;
19836;SDS011;10079;55.740;37.662;2022-12-04T15:41:21;7.50;;;4.07;;
19836;SDS011;10079;55.740;37.662;2022-12-04T15:44:34;10.80;;;4.10;;
19836;SDS011;10079;55.740;37.662;2022-12-04T15:47:50;6.83;;;3.93;;
19836;SDS011;10079;55.740;37.662;2022-12-04T15:50:57;7.83;;;4.60;;
19836;SDS011;10079;55.740;37.662;2022-12-04T15:54:02;10.23;;;4.03;;
19836;SDS011;10079;55.740;37.662;2022-12-04T15:57:16;9.43;;;4.43;;
19836;SDS011;10079;55.740;37.662;2022-12-04T16:00:23;9.23;;;4.40;;
19836;SDS011;10079;55.740;37.662;2022-12-04T16:03:27;8.40;;;4.23;;
19836;SDS011;10079;55.740;37.662;2022-12-04T16:06:44;8.57;;;4.17;;
19836;SDS011;10079;55.740;37.662;2022-12-04T16:09:51;10.10;;;3.90;;
19836;SDS011;10079;55.740;37.662;2022-12-04T16:12:55;9.13;;;4.50;;
19836;SDS011;10079;55.740;37.662;2022-12-04T16:15:58;8.50;;;4.57;;
19836;SDS011;10079;55.740;37.662;2022-12-04T16:19:08;8.77;;;5.10;;
19836;SDS011;10079;55.740;37.662;2022-12-04T16:22:38;8.13;;;4.43;;
19836;SDS011;10079;55.740;37.662;2022-12-04T16:25:41;10.70;;;4.70;;
19836;SDS011;10079;55.740;37.662;2022-12-04T16:28:53;9.23;;;4.30;;
19836;SDS011;10079;55.740;37.662;2022-12-04T16:31:59;11.07;;;4.27;;
19836;SDS011;10079;55.740;37.662;2022-12-04T16:35:06;7.93;;;4.37;;
19836;SDS011;10079;55.740;37.662;2022-12-04T16:48:46;10.80;;;5.33;;
19836;SDS011;10079;55.740;37.662;2022-12-04T16:51:49;13.37;;;4.57;;
19836;SDS011;10079;55.740;37.662;2022-12-04T16:54:55;9.10;;;5.30;;
19836;SDS011;10079;55.740;37.662;2022-12-04T16:58:03;10.90;;;4.70;;
19836;SDS011;10079;55.740;37.662;2022-12-04T17:01:06;10.97;;;4.80;;
19836;SDS011;10079;55.740;37.662;2022-12-04T17:04:27;11.70;;;5.03;;
19836;SDS011;10079;55.740;37.662;2022-12-04T17:07:33;12.07;;;4.63;;
19836;SDS011;10079;55.740;37.662;2022-12-04T17:10:39;9.90;;;4.00;;
19836;SDS011;10079;55.740;37.662;2022-12-04T17:13:46;9.93;;;4.30;;
19836;SDS011;10079;55.740;37.662;2022-12-04T17:16:52;9.97;;;4.63;;
19836;SDS011;10079;55.740;37.662;2022-12-04T17:19:59;9.93;;;4.43;;
19836;SDS011;10079;55.740;37.662;2022-12-04T17:23:05;11.23;;;4.87;;
19836;SDS011;10079;55.740;37.662;2022-12-04T17:26:12;14.23;;;4.90;;
19836;SDS011;10079;55.740;37.662;2022-12-04T17:29:18;11.13;;;4.57;;
19836;SDS011;10079;55.740;37.662;2022-12-04T17:32:24;7.70;;;4.53;;
19836;SDS011;10079;55.740;37.662;2022-12-04T17:35:27;13.70;;;4.30;;
19836;SDS011;10079;55.740;37.662;2022-12-04T17:38:31;9.83;;;4.93;;
19836;SDS011;10079;55.740;37.662;2022-12-04T17:41:34;9.10;;;5.10;;
19836;SDS011;10079;55.740;37.662;2022-12-04T17:44:36;7.27;;;3.63;;
19836;SDS011;10079;55.740;37.662;2022-12-04T17:47:39;9.67;;;4.37;;
19836;SDS011;10079;55.740;37.662;2022-12-04T17:50:45;8.70;;;4.07;;
19836;SDS011;10079;55.740;37.662;2022-12-04T17:53:55;10.07;;;4.30;;
19836;SDS011;10079;55.740;37.662;2022-12-04T17:56:58;11.23;;;4.20;;
19836;SDS011;10079;55.740;37.662;2022-12-04T18:00:01;7.13;;;3.97;;
19836;SDS011;10079;55.740;37.662;2022-12-04T18:03:04;11.27;;;5.03;;
19836;SDS011;10079;55.740;37.662;2022-12-04T18:06:24;11.13;;;4.47;;
19836;SDS011;10079;55.740;37.662;2022-12-04T18:09:29;11.10;;;5.40;;
19836;SDS011;10079;55.740;37.662;2022-12-04T18:23:19;12.67;;;5.87;;
19836;SDS011;10079;55.740;37.662;2022-12-04T18:26:24;9.43;;;4.17;;
19836;SDS011;10079;55.740;37.662;2022-12-04T18:29:26;10.33;;;4.80;;
19836;SDS011;10079;55.740;37.662;2022-12-04T18:32:29;15.40;;;5.43;;
19836;SDS011;10079;55.740;37.662;2022-12-04T18:35:33;14.17;;;4.77;;
19836;SDS011;10079;55.740;37.662;2022-12-04T18:38:36;16.20;;;4.87;;
19836;SDS011;10079;55.740;37.662;2022-12-04T18:41:40;9.70;;;4.57;;
19836;SDS011;10079;55.740;37.662;2022-12-04T18:44:43;8.30;;;3.93;;
19836;SDS011;10079;55.740;37.662;2022-12-04T18:47:47;13.67;;;4.73;;
19836;SDS011;10079;55.740;37.662;2022-12-04T18:50:59;9.50;;;5.20;;
19836;SDS011;10079;55.740;37.662;2022-12-04T18:54:12;8.97;;;4.97;;
19836;SDS011;10079;55.740;37.662;2022-12-04T18:57:15;12.73;;;4.77;;
19836;SDS011;10079;55.740;37.662;2022-12-04T19:00:18;11.40;;;4.43;;
19836;SDS011;10079;55.740;37.662;2022-12-04T19:03:34;9.40;;;4.47;;
19836;SDS011;10079;55.740;37.662;2022-12-04T19:17:25;13.20;;;5.87;;
19836;SDS011;10079;55.740;37.662;2022-12-04T19:20:31;11.23;;;4.97;;
19836;SDS011;10079;55.740;37.662;2022-12-04T19:23:34;12.13;;;5.10;;
19836;SDS011;10079;55.740;37.662;2022-12-04T19:26:46;9.53;;;4.60;;
19836;SDS011;10079;55.740;37.662;2022-12-04T19:29:58;14.47;;;4.57;;
19836;SDS011;10079;55.740;37.662;2022-12-04T19:33:01;13.10;;;4.80;;
19836;SDS011;10079;55.740;37.662;2022-12-04T19:36:05;11.17;;;4.87;;
19836;SDS011;10079;55.740;37.662;2022-12-04T19:39:13;8.80;;;4.30;;
19836;SDS011;10079;55.740;37.662;2022-12-04T19:42:31;8.10;;;4.10;;
19836;SDS011;10079;55.740;37.662;2022-12-04T19:45:35;10.13;;;5.23;;
19836;SDS011;10079;55.740;37.662;2022-12-04T19:48:54;13.23;;;5.13;;
19836;SDS011;10079;55.740;37.662;2022-12-04T19:51:59;9.83;;;4.30;;
19836;SDS011;10079;55.740;37.662;2022-12-04T19:55:18;11.93;;;5.00;;
19836;SDS011;10079;55.740;37.662;2022-12-04T19:58:38;13.37;;;4.83;;
19836;SDS011;10079;55.740;37.662;2022-12-04T20:01:42;15.00;;;5.40;;
19836;SDS011;10079;55.740;37.662;2022-12-04T20:04:45;13.27;;;4.47;;
19836;SDS011;10079;55.740;37.662;2022-12-04T20:18:19;17.63;;;6.53;;
19836;SDS011;10079;55.740;37.662;2022-12-04T20:21:23;12.27;;;4.93;;
19836;SDS011;10079;55.740;37.662;2022-12-04T20:24:32;11.33;;;5.13;;
19836;SDS011;10079;55.740;37.662;2022-12-04T20:27:38;8.90;;;4.17;;
19836;SDS011;10079;55.740;37.662;2022-12-04T20:30:51;9.00;;;5.07;;
19836;SDS011;10079;55.740;37.662;2022-12-04T20:34:04;13.93;;;5.20;;
19836;SDS011;10079;55.740;37.662;2022-12-04T20:37:08;12.33;;;4.70;;
19836;SDS011;10079;55.740;37.662;2022-12-04T20:40:10;9.93;;;4.90;;
19836;SDS011;10079;55.740;37.662;2022-12-04T20:43:16;8.53;;;4.50;;
19836;SDS011;10079;55.740;37.662;2022-12-04T20:46:24;12.13;;;4.77;;
19836;SDS011;10079;55.740;37.662;2022-12-04T20:49:37;11.23;;;4.80;;
19836;SDS011;10079;55.740;37.662;2022-12-04T20:52:44;11.40;;;4.27;;
19836;SDS011;10079;55.740;37.662;2022-12-04T20:55:51;10.63;;;5.30;;
19836;SDS011;10079;55.740;37.662;2022-12-04T20:58:58;11.60;;;4.90;;
19836;SDS011;10079;55.740;37.662;2022-12-04T21:02:02;10.23;;;4.97;;
19836;SDS011;10079;55.740;37.662;2022-12-04T21:05:05;13.53;;;5.07;;
19836;SDS011;10079;55.740;37.662;2022-12-04T21:08:07;15.93;;;5.67;;
19836;SDS011;10079;55.740;37.662;2022-12-04T21:11:15;11.73;;;5.30;;
19836;SDS011;10079;55.740;37.662;2022-12-04T21:14:22;16.07;;;5.23;;
19836;SDS011;10079;55.740;37.662;2022-12-04T21:17:27;12.13;;;5.33;;
19836;SDS011;10079;55.740;37.662;2022-12-04T21:20:30;10.23;;;4.80;;
19836;SDS011;10079;55.740;37.662;2022-12-04T21:23:33;9.83;;;5.70;;
19836;SDS011;10079;55.740;37.662;2022-12-04T21:26:36;10.00;;;4.87;;
19836;SDS011;10079;55.740;37.662;2022-12-04T21:29:47;13.10;;;4.83;;
19836;SDS011;10079;55.740;37.662;2022-12-04T21:32:50;7.97;;;5.17;;
19836;SDS011;10079;55.740;37.662;2022-12-04T21:35:54;10.63;;;5.30;;
19836;SDS011;10079;55.740;37.662;2022-12-04T21:39:00;12.10;;;5.53;;
19836;SDS011;10079;55.740;37.662;2022-12-04T21:42:03;11.47;;;4.53;;
19836;SDS011;10079;55.740;37.662;2022-12-04T21:45:09;11.60;;;5.07;;
19836;SDS011;10079;55.740;37.662;2022-12-04T21:58:43;16.83;;;6.83;;
19836;SDS011;10079;55.740;37.662;2022-12-04T22:01:47;11.40;;;5.40;;
19836;SDS011;10079;55.740;37.662;2022-12-04T22:05:02;11.67;;;5.47;;
19836;SDS011;10079;55.740;37.662;2022-12-04T22:08:10;8.70;;;5.63;;
19836;SDS011;10079;55.740;37.662;2022-12-04T22:11:13;13.40;;;6.00;;
19836;SDS011;10079;55.740;37.662;2022-12-04T22:14:16;13.27;;;5.67;;